createdAt,value
2023-07-15T00:00:23.440Z,20.60
2023-07-15T00:01:23.389Z,20.59
2023-07-15T00:02:23.370Z,20.57
2023-07-15T00:03:23.400Z,20.56
2023-07-15T00:04:23.586Z,20.55
2023-07-15T00:05:23.588Z,20.55
2023-07-15T00:06:23.332Z,20.54
2023-07-15T00:07:23.589Z,20.53
2023-07-15T00:08:23.299Z,20.52
2023-07-15T00:09:23.314Z,20.51
2023-07-15T00:10:23.286Z,20.50
2023-07-15T00:11:23.284Z,20.49
2023-07-15T00:12:23.248Z,20.48
2023-07-15T00:13:23.597Z,20.48
2023-07-15T00:14:23.228Z,20.47
2023-07-15T00:15:23.242Z,20.45
2023-07-15T00:16:23.223Z,20.44
2023-07-15T00:17:23.206Z,20.43
2023-07-15T00:18:23.182Z,20.42
2023-07-15T00:19:23.198Z,20.41
2023-07-15T00:20:23.602Z,20.40
2023-07-15T00:21:23.155Z,20.40
2023-07-15T00:22:23.282Z,20.39
2023-07-15T00:23:23.323Z,20.38
2023-07-15T00:24:23.114Z,20.38
2023-07-15T00:25:23.120Z,20.37
2023-07-15T00:26:23.108Z,20.36
2023-07-15T00:27:23.098Z,20.35
2023-07-15T00:28:23.608Z,20.35
2023-07-15T00:29:23.113Z,20.35
2023-07-15T00:30:23.046Z,20.34
2023-07-15T00:31:23.118Z,20.34
2023-07-15T00:32:23.659Z,20.33
2023-07-15T00:33:23.619Z,20.33
2023-07-15T00:34:23.002Z,20.32
2023-07-15T00:35:23.056Z,20.32
2023-07-15T00:36:22.998Z,20.31
2023-07-15T00:37:23.013Z,20.31
2023-07-15T00:38:22.981Z,20.30
2023-07-15T00:39:23.089Z,20.29
2023-07-15T00:40:22.950Z,20.28
2023-07-15T00:41:23.206Z,20.27
2023-07-15T00:42:22.926Z,20.26
2023-07-15T00:43:22.916Z,20.25
2023-07-15T00:44:23.079Z,20.25
2023-07-15T00:45:23.208Z,20.24
2023-07-15T00:46:22.934Z,20.24
2023-07-15T00:47:23.384Z,20.24
2023-07-15T00:48:22.847Z,20.24
2023-07-15T00:49:22.926Z,20.24
2023-07-15T00:50:22.879Z,20.24
2023-07-15T00:51:22.818Z,20.23
2023-07-15T00:52:22.952Z,20.23
2023-07-15T00:53:22.952Z,20.22
2023-07-15T00:54:22.779Z,20.21
2023-07-15T00:55:22.787Z,20.19
2023-07-15T00:56:22.765Z,20.18
2023-07-15T00:57:22.793Z,20.16
2023-07-15T00:58:23.059Z,20.15
2023-07-15T00:59:22.758Z,20.14
2023-07-15T01:00:22.761Z,20.13
2023-07-15T01:01:23.165Z,20.12
2023-07-15T01:02:23.219Z,20.11
2023-07-15T01:03:23.126Z,20.10
2023-07-15T01:04:22.729Z,20.09
2023-07-15T01:05:22.844Z,20.08
2023-07-15T01:06:22.658Z,20.06
2023-07-15T01:07:22.652Z,20.05
2023-07-15T01:08:22.620Z,20.04
2023-07-15T01:09:22.648Z,20.03
2023-07-15T01:10:22.607Z,20.02
2023-07-15T01:11:22.613Z,20.02
2023-07-15T01:12:22.580Z,20.01
2023-07-15T01:13:22.606Z,20.00
2023-07-15T01:14:22.567Z,19.99
2023-07-15T01:15:23.405Z,19.98
2023-07-15T01:16:22.584Z,19.97
2023-07-15T01:17:22.687Z,19.96
2023-07-15T01:18:22.648Z,19.95
2023-07-15T01:19:22.591Z,19.94
2023-07-15T01:20:22.643Z,19.93
2023-07-15T01:21:22.895Z,19.92
2023-07-15T01:22:22.667Z,19.91
2023-07-15T01:23:22.501Z,19.90
2023-07-15T01:24:22.685Z,19.89
2023-07-15T01:25:22.447Z,19.87
2023-07-15T01:26:22.483Z,19.86
2023-07-15T01:27:22.512Z,19.85
2023-07-15T01:28:22.406Z,19.83
2023-07-15T01:29:22.567Z,19.82
2023-07-15T01:30:22.388Z,19.81
2023-07-15T01:31:22.670Z,19.80
2023-07-15T01:32:22.734Z,19.80
2023-07-15T01:33:22.704Z,19.79
2023-07-15T01:34:22.363Z,19.79
2023-07-15T01:35:22.602Z,19.78
2023-07-15T01:36:22.335Z,19.78
2023-07-15T01:37:22.318Z,19.77
2023-07-15T01:38:22.564Z,19.77
2023-07-15T01:39:22.664Z,19.77
2023-07-15T01:40:22.543Z,19.76
2023-07-15T01:41:22.312Z,19.76
2023-07-15T01:42:22.262Z,19.75
2023-07-15T01:43:22.237Z,19.74
2023-07-15T01:44:22.253Z,19.73
2023-07-15T01:45:22.253Z,19.73
2023-07-15T01:46:22.263Z,19.73
2023-07-15T01:47:22.206Z,19.73
2023-07-15T01:48:24.089Z,19.72
2023-07-15T01:49:22.669Z,19.72
2023-07-15T01:50:22.189Z,19.71
2023-07-15T01:51:22.148Z,19.71
2023-07-15T01:52:22.150Z,19.70
2023-07-15T01:53:22.131Z,19.69
2023-07-15T01:54:22.214Z,19.68
2023-07-15T01:55:22.111Z,19.67
2023-07-15T01:56:22.098Z,19.66
2023-07-15T01:57:22.272Z,19.64
2023-07-15T01:58:22.108Z,19.63
2023-07-15T01:59:22.050Z,19.62
2023-07-15T02:00:22.055Z,19.60
2023-07-15T02:01:22.161Z,19.58
2023-07-15T02:02:22.153Z,19.56
2023-07-15T02:03:22.066Z,19.55
2023-07-15T02:04:22.019Z,19.54
2023-07-15T02:05:22.018Z,19.53
2023-07-15T02:06:22.030Z,19.53
2023-07-15T02:07:21.969Z,19.52
2023-07-15T02:08:21.954Z,19.51
2023-07-15T02:09:21.950Z,19.50
2023-07-15T02:10:21.929Z,19.49
2023-07-15T02:11:21.916Z,19.48
2023-07-15T02:12:21.917Z,19.46
2023-07-15T02:13:21.931Z,19.45
2023-07-15T02:14:21.901Z,19.44
2023-07-15T02:15:21.965Z,19.44
2023-07-15T02:16:21.917Z,19.43
2023-07-15T02:17:21.895Z,19.42
2023-07-15T02:18:21.889Z,19.41
2023-07-15T02:19:22.173Z,19.41
2023-07-15T02:20:21.884Z,19.40
2023-07-15T02:21:22.126Z,19.40
2023-07-15T02:22:21.821Z,19.40
2023-07-15T02:23:21.819Z,19.40
2023-07-15T02:24:21.858Z,19.39
2023-07-15T02:25:21.758Z,19.39
2023-07-15T02:26:21.751Z,19.38
2023-07-15T02:27:21.975Z,19.38
2023-07-15T02:28:21.749Z,19.37
2023-07-15T02:29:21.703Z,19.36
2023-07-15T02:30:21.748Z,19.36
2023-07-15T02:31:21.788Z,19.36
2023-07-15T02:32:21.717Z,19.35
2023-07-15T02:33:21.658Z,19.35
2023-07-15T02:34:21.694Z,19.35
2023-07-15T02:35:21.664Z,19.34
2023-07-15T02:36:21.637Z,19.34
2023-07-15T02:37:21.613Z,19.33
2023-07-15T02:38:21.606Z,19.32
2023-07-15T02:39:21.598Z,19.31
2023-07-15T02:40:21.615Z,19.30
2023-07-15T02:41:21.596Z,19.29
2023-07-15T02:42:21.592Z,19.28
2023-07-15T02:43:21.562Z,19.27
2023-07-15T02:44:21.572Z,19.26
2023-07-15T02:45:21.519Z,19.24
2023-07-15T02:46:21.585Z,19.23
2023-07-15T02:47:21.578Z,19.22
2023-07-15T02:48:21.500Z,19.21
2023-07-15T02:49:21.474Z,19.20
2023-07-15T02:50:21.480Z,19.19
2023-07-15T02:51:21.446Z,19.18
2023-07-15T02:52:21.486Z,19.17
2023-07-15T02:53:21.426Z,19.16
2023-07-15T02:54:21.475Z,19.15
2023-07-15T02:55:21.407Z,19.15
2023-07-15T02:56:21.418Z,19.14
2023-07-15T02:57:21.395Z,19.13
2023-07-15T02:58:21.387Z,19.13
2023-07-15T02:59:21.347Z,19.12
2023-07-15T03:00:21.379Z,19.11
2023-07-15T03:01:21.363Z,19.11
2023-07-15T03:02:21.372Z,19.10
2023-07-15T03:03:21.314Z,19.09
2023-07-15T03:04:21.414Z,19.08
2023-07-15T03:05:21.332Z,19.07
2023-07-15T03:06:21.289Z,19.06
2023-07-15T03:07:21.506Z,19.05
2023-07-15T03:08:21.280Z,19.04
2023-07-15T03:09:21.237Z,19.03
2023-07-15T03:10:21.250Z,19.01
2023-07-15T03:11:21.243Z,19.00
2023-07-15T03:12:21.224Z,18.98
2023-07-15T03:13:21.227Z,18.97
2023-07-15T03:14:21.228Z,18.95
2023-07-15T03:15:21.170Z,18.94
2023-07-15T03:16:21.242Z,18.92
2023-07-15T03:17:21.505Z,18.91
2023-07-15T03:18:21.154Z,18.89
2023-07-15T03:19:21.127Z,18.88
2023-07-15T03:20:21.442Z,18.87
2023-07-15T03:21:21.106Z,18.86
2023-07-15T03:22:21.197Z,18.85
2023-07-15T03:23:21.534Z,18.84
2023-07-15T03:24:21.086Z,18.83
2023-07-15T03:25:21.811Z,18.82
2023-07-15T03:26:21.075Z,18.80
2023-07-15T03:27:21.042Z,18.79
2023-07-15T03:28:21.074Z,18.78
2023-07-15T03:29:21.010Z,18.77
2023-07-15T03:30:21.028Z,18.75
2023-07-15T03:31:21.040Z,18.74
2023-07-15T03:32:21.036Z,18.73
2023-07-15T03:33:21.765Z,18.72
2023-07-15T03:34:22.138Z,18.71
2023-07-15T03:35:20.945Z,18.70
2023-07-15T03:36:20.967Z,18.69
2023-07-15T03:37:21.601Z,18.68
2023-07-15T03:38:20.929Z,18.67
2023-07-15T03:39:21.711Z,18.66
2023-07-15T03:40:20.991Z,18.65
2023-07-15T03:41:21.772Z,18.65
2023-07-15T03:42:20.993Z,18.64
2023-07-15T03:43:20.923Z,18.63
2023-07-15T03:44:20.872Z,18.63
2023-07-15T03:45:20.830Z,18.63
2023-07-15T03:46:21.383Z,18.63
2023-07-15T03:47:21.774Z,18.63
2023-07-15T03:48:20.961Z,18.63
2023-07-15T03:49:20.790Z,18.63
2023-07-15T03:50:20.792Z,18.63
2023-07-15T03:51:20.774Z,18.63
2023-07-15T03:52:20.802Z,18.63
2023-07-15T03:53:20.760Z,18.64
2023-07-15T03:54:20.756Z,18.64
2023-07-15T03:55:20.783Z,18.64
2023-07-15T03:56:20.742Z,18.65
2023-07-15T03:57:20.718Z,18.66
2023-07-15T03:58:20.706Z,18.66
2023-07-15T03:59:20.688Z,18.66
2023-07-15T04:00:20.694Z,18.67
2023-07-15T04:01:20.683Z,18.67
2023-07-15T04:02:20.770Z,18.68
2023-07-15T04:03:20.777Z,18.68
2023-07-15T04:04:20.692Z,18.68
2023-07-15T04:05:20.624Z,18.68
2023-07-15T04:06:20.630Z,18.68
2023-07-15T04:07:20.592Z,18.68
2023-07-15T04:08:20.611Z,18.69
2023-07-15T04:09:20.564Z,18.69
2023-07-15T04:10:20.581Z,18.69
2023-07-15T04:11:20.804Z,18.70
2023-07-15T04:12:20.559Z,18.70
2023-07-15T04:13:20.540Z,18.71
2023-07-15T04:14:20.818Z,18.71
2023-07-15T04:15:20.497Z,18.72
2023-07-15T04:16:20.572Z,18.72
2023-07-15T04:17:20.485Z,18.73
2023-07-15T04:18:20.475Z,18.74
2023-07-15T04:19:20.457Z,18.74
2023-07-15T04:20:20.839Z,18.75
2023-07-15T04:21:20.425Z,18.76
2023-07-15T04:22:20.482Z,18.76
2023-07-15T04:23:20.427Z,18.77
2023-07-15T04:24:20.738Z,18.77
2023-07-15T04:25:20.368Z,18.77
2023-07-15T04:26:20.810Z,18.78
2023-07-15T04:27:20.356Z,18.79
2023-07-15T04:28:20.360Z,18.80
2023-07-15T04:29:20.481Z,18.82
2023-07-15T04:30:20.341Z,18.83
2023-07-15T04:31:20.335Z,18.85
2023-07-15T04:32:20.379Z,18.88
2023-07-15T04:33:20.283Z,18.90
2023-07-15T04:34:20.323Z,18.94
2023-07-15T04:35:20.820Z,18.97
2023-07-15T04:36:20.289Z,19.00
2023-07-15T04:37:20.237Z,19.04
2023-07-15T04:38:20.288Z,19.10
2023-07-15T04:39:20.228Z,19.15
2023-07-15T04:40:20.222Z,19.20
2023-07-15T04:41:20.202Z,19.25
2023-07-15T04:42:20.198Z,19.32
2023-07-15T04:43:20.437Z,19.38
2023-07-15T04:44:20.465Z,19.44
2023-07-15T04:45:20.164Z,19.50
2023-07-15T04:46:20.173Z,19.56
2023-07-15T04:47:20.210Z,19.61
2023-07-15T04:48:20.159Z,19.66
2023-07-15T04:49:20.114Z,19.70
2023-07-15T04:50:20.112Z,19.74
2023-07-15T04:51:20.099Z,19.79
2023-07-15T04:52:20.217Z,19.83
2023-07-15T04:53:20.773Z,19.86
2023-07-15T04:54:20.366Z,19.90
2023-07-15T04:55:20.037Z,19.94
2023-07-15T04:56:20.243Z,19.99
2023-07-15T04:57:20.860Z,20.03
2023-07-15T04:58:20.015Z,20.07
2023-07-15T04:59:19.988Z,20.11
2023-07-15T05:00:19.988Z,20.16
2023-07-15T05:01:20.041Z,20.21
2023-07-15T05:02:19.990Z,20.25
2023-07-15T05:03:20.040Z,20.30
2023-07-15T05:04:19.979Z,20.34
2023-07-15T05:05:19.922Z,20.38
2023-07-15T05:06:19.945Z,20.42
2023-07-15T05:07:19.904Z,20.46
2023-07-15T05:08:19.913Z,20.51
2023-07-15T05:09:19.874Z,20.56
2023-07-15T05:10:19.888Z,20.62
2023-07-15T05:11:19.881Z,20.69
2023-07-15T05:12:19.859Z,20.77
2023-07-15T05:13:19.850Z,20.85
2023-07-15T05:14:19.846Z,20.95
2023-07-15T05:15:19.843Z,21.05
2023-07-15T05:16:19.906Z,21.15
2023-07-15T05:17:19.782Z,21.27
2023-07-15T05:18:19.816Z,21.40
2023-07-15T05:19:19.767Z,21.54
2023-07-15T05:20:19.793Z,21.69
2023-07-15T05:21:19.750Z,21.85
2023-07-15T05:22:19.780Z,22.03
2023-07-15T05:23:19.719Z,22.22
2023-07-15T05:24:20.474Z,22.41
2023-07-15T05:25:19.720Z,22.58
2023-07-15T05:26:19.728Z,22.75
2023-07-15T05:27:19.673Z,22.91
2023-07-15T05:28:19.683Z,23.06
2023-07-15T05:29:19.653Z,23.20
2023-07-15T05:30:19.684Z,23.35
2023-07-15T05:31:19.674Z,23.49
2023-07-15T05:32:19.874Z,23.63
2023-07-15T05:33:19.625Z,23.75
2023-07-15T05:34:19.621Z,23.86
2023-07-15T05:35:19.586Z,23.97
2023-07-15T05:36:19.624Z,24.08
2023-07-15T05:37:19.559Z,24.19
2023-07-15T05:38:20.086Z,24.29
2023-07-15T05:39:22.899Z,24.38
2023-07-15T05:40:20.160Z,24.46
2023-07-15T05:41:19.530Z,24.56
2023-07-15T05:42:19.534Z,24.66
2023-07-15T05:43:19.481Z,24.75
2023-07-15T05:44:19.509Z,24.83
2023-07-15T05:45:19.498Z,24.89
2023-07-15T05:46:19.491Z,24.93
2023-07-15T05:47:20.969Z,24.98
2023-07-15T05:48:20.443Z,25.05
2023-07-15T05:49:19.418Z,25.15
2023-07-15T05:50:19.419Z,25.23
2023-07-15T05:51:19.426Z,25.33
2023-07-15T05:52:19.393Z,25.42
2023-07-15T05:53:19.406Z,25.48
2023-07-15T05:54:19.386Z,25.54
2023-07-15T05:55:19.384Z,25.61
2023-07-15T05:56:19.364Z,25.68
2023-07-15T05:57:19.351Z,25.76
2023-07-15T05:58:19.355Z,25.86
2023-07-15T05:59:19.890Z,25.95
2023-07-15T06:00:19.329Z,26.04
2023-07-15T06:01:19.528Z,26.08
2023-07-15T06:02:19.298Z,26.12
2023-07-15T06:03:19.401Z,26.18
2023-07-15T06:04:19.267Z,26.22
2023-07-15T06:05:19.277Z,26.27
2023-07-15T06:06:19.234Z,26.35
2023-07-15T06:07:19.273Z,26.43
2023-07-15T06:08:19.232Z,26.50
2023-07-15T06:09:19.237Z,26.55
2023-07-15T06:10:19.212Z,26.58
2023-07-15T06:11:19.445Z,26.56
2023-07-15T06:12:19.179Z,26.48
2023-07-15T06:13:19.175Z,26.37
2023-07-15T06:14:19.160Z,26.23
2023-07-15T06:15:19.179Z,26.06
2023-07-15T06:16:19.132Z,25.88
2023-07-15T06:17:19.204Z,25.72
2023-07-15T06:18:19.132Z,25.57
2023-07-15T06:19:19.127Z,25.42
2023-07-15T06:20:19.467Z,25.25
2023-07-15T06:21:19.086Z,25.08
2023-07-15T06:22:19.104Z,24.92
2023-07-15T06:23:19.057Z,24.77
2023-07-15T06:24:19.080Z,24.63
2023-07-15T06:25:19.071Z,24.51
2023-07-15T06:26:19.045Z,24.40
2023-07-15T06:27:19.046Z,24.28
2023-07-15T06:28:19.011Z,24.19
2023-07-15T06:29:19.004Z,24.11
2023-07-15T06:30:18.973Z,24.03
2023-07-15T06:31:19.332Z,23.95
2023-07-15T06:32:18.955Z,23.88
2023-07-15T06:33:18.962Z,23.81
2023-07-15T06:34:19.445Z,23.75
2023-07-15T06:35:18.938Z,23.69
2023-07-15T06:36:18.929Z,23.63
2023-07-15T06:37:18.907Z,23.58
2023-07-15T06:38:18.890Z,23.53
2023-07-15T06:39:19.811Z,23.49
2023-07-15T06:40:18.877Z,23.46
2023-07-15T06:41:18.996Z,23.43
2023-07-15T06:42:18.917Z,23.40
2023-07-15T06:43:18.966Z,23.37
2023-07-15T06:44:18.892Z,23.33
2023-07-15T06:45:18.953Z,23.29
2023-07-15T06:46:18.827Z,23.25
2023-07-15T06:47:19.508Z,23.21
2023-07-15T06:48:18.789Z,23.17
2023-07-15T06:49:18.776Z,23.14
2023-07-15T06:50:18.764Z,23.12
2023-07-15T06:51:18.764Z,23.10
2023-07-15T06:52:18.755Z,23.08
2023-07-15T06:53:18.774Z,23.06
2023-07-15T06:54:18.711Z,23.03
2023-07-15T06:55:18.732Z,23.01
2023-07-15T06:56:20.935Z,22.98
2023-07-15T06:57:19.618Z,22.95
2023-07-15T06:58:18.781Z,22.93
2023-07-15T06:59:18.697Z,22.91
2023-07-15T07:00:18.642Z,22.89
2023-07-15T07:01:19.054Z,22.86
2023-07-15T07:02:18.698Z,22.84
2023-07-15T07:03:18.626Z,22.81
2023-07-15T07:04:18.786Z,22.79
2023-07-15T07:05:18.594Z,22.77
2023-07-15T07:06:18.654Z,22.75
2023-07-15T07:07:18.602Z,22.73
2023-07-15T07:08:18.595Z,22.70
2023-07-15T07:09:18.625Z,22.68
2023-07-15T07:10:18.547Z,22.67
2023-07-15T07:11:18.893Z,22.65
2023-07-15T07:12:18.533Z,22.63
2023-07-15T07:13:18.555Z,22.62
2023-07-15T07:14:18.578Z,22.60
2023-07-15T07:15:18.514Z,22.58
2023-07-15T07:16:18.613Z,22.57
2023-07-15T07:17:18.502Z,22.56
2023-07-15T07:18:18.613Z,22.56
2023-07-15T07:19:18.485Z,22.55
2023-07-15T07:20:18.462Z,22.54
2023-07-15T07:21:18.537Z,22.53
2023-07-15T07:22:18.875Z,22.53
2023-07-15T07:23:18.423Z,22.51
2023-07-15T07:24:18.427Z,22.50
2023-07-15T07:25:20.367Z,22.49
2023-07-15T07:26:18.389Z,22.49
2023-07-15T07:27:18.367Z,22.48
2023-07-15T07:28:19.009Z,22.47
2023-07-15T07:29:18.349Z,22.46
2023-07-15T07:30:19.048Z,22.46
2023-07-15T07:31:18.811Z,22.45
2023-07-15T07:32:18.292Z,22.44
2023-07-15T07:33:18.975Z,22.43
2023-07-15T07:34:18.283Z,22.43
2023-07-15T07:35:18.283Z,22.43
2023-07-15T07:36:18.270Z,22.43
2023-07-15T07:37:18.245Z,22.43
2023-07-15T07:38:18.257Z,22.43
2023-07-15T07:39:18.261Z,22.43
2023-07-15T07:40:18.975Z,22.43
2023-07-15T07:41:18.473Z,22.43
2023-07-15T07:42:18.863Z,22.43
2023-07-15T07:43:18.199Z,22.43
2023-07-15T07:44:18.191Z,22.43
2023-07-15T07:45:18.157Z,22.43
2023-07-15T07:46:19.043Z,22.43
2023-07-15T07:47:18.150Z,22.42
2023-07-15T07:48:18.121Z,22.41
2023-07-15T07:49:18.142Z,22.40
2023-07-15T07:50:18.086Z,22.38
2023-07-15T07:51:18.234Z,22.36
2023-07-15T07:52:18.082Z,22.34
2023-07-15T07:53:18.071Z,22.32
2023-07-15T07:54:18.363Z,22.30
2023-07-15T07:55:18.045Z,22.28
2023-07-15T07:56:18.024Z,22.28
2023-07-15T07:57:18.023Z,22.28
2023-07-15T07:58:18.000Z,22.27
2023-07-15T07:59:18.012Z,22.26
2023-07-15T08:00:17.977Z,22.26
2023-07-15T08:01:18.196Z,22.27
2023-07-15T08:02:18.664Z,22.28
2023-07-15T08:03:18.068Z,22.30
2023-07-15T08:04:17.983Z,22.32
2023-07-15T08:05:17.939Z,22.33
2023-07-15T08:06:17.926Z,22.34
2023-07-15T08:07:18.771Z,22.34
2023-07-15T08:08:17.880Z,22.34
2023-07-15T08:09:17.942Z,22.33
2023-07-15T08:10:17.859Z,22.32
2023-07-15T08:11:17.880Z,22.31
2023-07-15T08:12:17.832Z,22.29
2023-07-15T08:13:17.833Z,22.26
2023-07-15T08:14:17.820Z,22.24
2023-07-15T08:15:17.965Z,22.21
2023-07-15T08:16:17.826Z,22.17
2023-07-15T08:17:17.802Z,22.14
2023-07-15T08:18:17.760Z,22.11
2023-07-15T08:19:17.786Z,22.09
2023-07-15T08:20:17.768Z,22.07
2023-07-15T08:21:17.759Z,22.04
2023-07-15T08:22:17.777Z,22.01
2023-07-15T08:23:17.723Z,21.98
2023-07-15T08:24:17.959Z,21.95
2023-07-15T08:25:17.700Z,21.93
2023-07-15T08:26:19.860Z,21.91
2023-07-15T08:27:17.676Z,21.89
2023-07-15T08:28:17.656Z,21.85
2023-07-15T08:29:17.658Z,21.82
2023-07-15T08:30:17.624Z,21.79
2023-07-15T08:31:17.935Z,21.76
2023-07-15T08:32:17.649Z,21.74
2023-07-15T08:33:17.647Z,21.72
2023-07-15T08:34:17.605Z,21.71
2023-07-15T08:35:17.589Z,21.69
2023-07-15T08:36:17.554Z,21.68
2023-07-15T08:37:17.584Z,21.67
2023-07-15T08:38:17.543Z,21.66
2023-07-15T08:39:17.750Z,21.65
2023-07-15T08:40:17.537Z,21.64
2023-07-15T08:41:17.658Z,21.63
2023-07-15T08:42:17.497Z,21.62
2023-07-15T08:43:17.510Z,21.61
2023-07-15T08:44:17.480Z,21.61
2023-07-15T08:45:17.476Z,21.60
2023-07-15T08:46:17.463Z,21.60
2023-07-15T08:47:17.439Z,21.59
2023-07-15T08:48:17.438Z,21.58
2023-07-15T08:49:19.761Z,21.57
2023-07-15T08:50:17.406Z,21.56
2023-07-15T08:51:17.394Z,21.55
2023-07-15T08:52:17.366Z,21.55
2023-07-15T08:53:17.441Z,21.55
2023-07-15T08:54:17.381Z,21.56
2023-07-15T08:55:18.255Z,21.56
2023-07-15T08:56:17.334Z,21.56
2023-07-15T08:57:17.394Z,21.56
2023-07-15T08:58:17.295Z,21.57
2023-07-15T08:59:17.309Z,21.57
2023-07-15T09:00:17.307Z,21.57
2023-07-15T09:01:17.787Z,21.58
2023-07-15T09:02:17.299Z,21.58
2023-07-15T09:03:18.336Z,21.59
2023-07-15T09:04:18.141Z,21.59
2023-07-15T09:05:18.060Z,21.59
2023-07-15T09:06:17.969Z,21.59
2023-07-15T09:07:17.270Z,21.59
2023-07-15T09:08:18.052Z,21.58
2023-07-15T09:09:17.324Z,21.58
2023-07-15T09:10:18.057Z,21.57
2023-07-15T09:11:18.000Z,21.55
2023-07-15T09:12:17.145Z,21.54
2023-07-15T09:13:18.066Z,21.52
2023-07-15T09:14:17.265Z,21.50
2023-07-15T09:15:17.125Z,21.48
2023-07-15T09:16:17.224Z,21.46
2023-07-15T09:17:17.099Z,21.45
2023-07-15T09:18:17.126Z,21.43
2023-07-15T09:19:17.073Z,21.40
2023-07-15T09:20:17.073Z,21.38
2023-07-15T09:21:17.426Z,21.35
2023-07-15T09:22:17.047Z,21.33
2023-07-15T09:23:17.064Z,21.31
2023-07-15T09:24:17.154Z,21.27
2023-07-15T09:25:17.032Z,21.23
2023-07-15T09:26:18.832Z,21.19
2023-07-15T09:27:17.001Z,21.14
2023-07-15T09:28:17.315Z,21.11
2023-07-15T09:29:17.077Z,21.07
2023-07-15T09:30:17.069Z,21.04
2023-07-15T09:31:17.326Z,21.01
2023-07-15T09:32:17.085Z,20.99
2023-07-15T09:33:17.094Z,20.98
2023-07-15T09:34:16.963Z,20.97
2023-07-15T09:35:17.088Z,20.96
2023-07-15T09:36:16.878Z,20.94
2023-07-15T09:37:17.096Z,20.93
2023-07-15T09:38:16.915Z,20.92
2023-07-15T09:39:16.872Z,20.90
2023-07-15T09:40:16.878Z,20.89
2023-07-15T09:41:16.946Z,20.88
2023-07-15T09:42:16.819Z,20.87
2023-07-15T09:43:16.796Z,20.88
2023-07-15T09:44:16.905Z,20.88
2023-07-15T09:45:16.782Z,20.88
2023-07-15T09:46:16.820Z,20.88
2023-07-15T09:47:16.794Z,20.89
2023-07-15T09:48:16.735Z,20.90
2023-07-15T09:49:16.759Z,20.91
2023-07-15T09:50:16.765Z,20.91
2023-07-15T09:51:17.164Z,20.92
2023-07-15T09:52:16.709Z,20.92
2023-07-15T09:53:16.690Z,20.94
2023-07-15T09:54:16.676Z,20.96
2023-07-15T09:55:16.952Z,20.99
2023-07-15T09:56:16.643Z,21.01
2023-07-15T09:57:16.643Z,21.04
2023-07-15T09:58:16.629Z,21.07
2023-07-15T09:59:16.670Z,21.11
2023-07-15T10:00:16.638Z,21.15
2023-07-15T10:01:16.950Z,21.20
2023-07-15T10:02:16.580Z,21.25
2023-07-15T10:03:16.638Z,21.30
2023-07-15T10:04:16.625Z,21.35
2023-07-15T10:05:17.114Z,21.40
2023-07-15T10:06:16.617Z,21.44
2023-07-15T10:07:16.539Z,21.46
2023-07-15T10:08:16.532Z,21.48
2023-07-15T10:09:16.512Z,21.51
2023-07-15T10:10:16.531Z,21.53
2023-07-15T10:11:16.633Z,21.56
2023-07-15T10:12:16.614Z,21.59
2023-07-15T10:13:16.449Z,21.61
2023-07-15T10:14:16.471Z,21.61
2023-07-15T10:15:16.513Z,21.60
2023-07-15T10:16:16.439Z,21.60
2023-07-15T10:17:16.687Z,21.59
2023-07-15T10:18:16.407Z,21.59
2023-07-15T10:19:16.386Z,21.57
2023-07-15T10:20:19.851Z,21.56
2023-07-15T10:21:16.758Z,21.55
2023-07-15T10:22:16.371Z,21.56
2023-07-15T10:23:16.337Z,21.57
2023-07-15T10:24:16.355Z,21.59
2023-07-15T10:25:16.360Z,21.62
2023-07-15T10:26:16.336Z,21.65
2023-07-15T10:27:16.293Z,21.69
2023-07-15T10:28:16.286Z,21.72
2023-07-15T10:29:16.282Z,21.75
2023-07-15T10:30:16.279Z,21.79
2023-07-15T10:31:16.421Z,21.84
2023-07-15T10:32:18.993Z,21.88
2023-07-15T10:33:16.279Z,21.94
2023-07-15T10:34:16.230Z,22.01
2023-07-15T10:35:16.206Z,22.07
2023-07-15T10:36:16.248Z,22.12
2023-07-15T10:37:16.181Z,22.17
2023-07-15T10:38:16.181Z,22.20
2023-07-15T10:39:16.179Z,22.23
2023-07-15T10:40:16.196Z,22.26
2023-07-15T10:41:16.311Z,22.29
2023-07-15T10:42:16.178Z,22.32
2023-07-15T10:43:16.132Z,22.35
2023-07-15T10:44:16.135Z,22.37
2023-07-15T10:45:16.158Z,22.38
2023-07-15T10:46:16.375Z,22.39
2023-07-15T10:47:16.374Z,22.40
2023-07-15T10:48:16.075Z,22.41
2023-07-15T10:49:16.336Z,22.41
2023-07-15T10:50:16.090Z,22.41
2023-07-15T10:51:16.136Z,22.42
2023-07-15T10:52:16.043Z,22.42
2023-07-15T10:53:15.999Z,22.43
2023-07-15T10:54:16.024Z,22.43
2023-07-15T10:55:16.017Z,22.44
2023-07-15T10:56:16.190Z,22.44
2023-07-15T10:57:15.992Z,22.44
2023-07-15T10:58:16.102Z,22.44
2023-07-15T10:59:15.968Z,22.45
2023-07-15T11:00:16.162Z,22.45
2023-07-15T11:01:16.284Z,22.46
2023-07-15T11:02:15.926Z,22.46
2023-07-15T11:03:15.888Z,22.47
2023-07-15T11:04:15.988Z,22.48
2023-07-15T11:05:15.944Z,22.49
2023-07-15T11:06:16.087Z,22.50
2023-07-15T11:07:15.901Z,22.51
2023-07-15T11:08:15.861Z,22.53
2023-07-15T11:09:15.896Z,22.56
2023-07-15T11:10:15.852Z,22.58
2023-07-15T11:11:15.812Z,22.61
2023-07-15T11:12:15.853Z,22.64
2023-07-15T11:13:15.808Z,22.67
2023-07-15T11:14:15.773Z,22.71
2023-07-15T11:15:15.762Z,22.75
2023-07-15T11:16:16.005Z,22.81
2023-07-15T11:17:18.782Z,22.88
2023-07-15T11:18:15.748Z,22.94
2023-07-15T11:19:15.701Z,23.00
2023-07-15T11:20:15.732Z,23.06
2023-07-15T11:21:15.804Z,23.11
2023-07-15T11:22:15.694Z,23.16
2023-07-15T11:23:17.493Z,23.21
2023-07-15T11:24:15.772Z,23.26
2023-07-15T11:25:15.642Z,23.31
2023-07-15T11:26:15.883Z,23.35
2023-07-15T11:27:15.622Z,23.39
2023-07-15T11:28:15.634Z,23.42
2023-07-15T11:29:15.610Z,23.45
2023-07-15T11:30:15.630Z,23.48
2023-07-15T11:31:15.655Z,23.52
2023-07-15T11:32:15.583Z,23.56
2023-07-15T11:33:15.563Z,23.60
2023-07-15T11:34:15.553Z,23.63
2023-07-15T11:35:15.661Z,23.65
2023-07-15T11:36:15.742Z,23.67
2023-07-15T11:37:15.503Z,23.69
2023-07-15T11:38:15.518Z,23.71
2023-07-15T11:39:15.495Z,23.73
2023-07-15T11:40:15.528Z,23.74
2023-07-15T11:41:15.477Z,23.75
2023-07-15T11:42:15.464Z,23.75
2023-07-15T11:43:15.439Z,23.74
2023-07-15T11:44:15.486Z,23.74
2023-07-15T11:45:15.398Z,23.73
2023-07-15T11:46:15.678Z,23.73
2023-07-15T11:47:15.403Z,23.74
2023-07-15T11:48:15.407Z,23.75
2023-07-15T11:49:15.364Z,23.76
2023-07-15T11:50:15.466Z,23.76
2023-07-15T11:51:15.502Z,23.77
2023-07-15T11:52:15.359Z,23.77
2023-07-15T11:53:15.327Z,23.77
2023-07-15T11:54:15.331Z,23.78
2023-07-15T11:55:15.308Z,23.79
2023-07-15T11:56:15.592Z,23.79
2023-07-15T11:57:15.310Z,23.79
2023-07-15T11:58:15.281Z,23.78
2023-07-15T11:59:15.246Z,23.77
2023-07-15T12:00:15.244Z,23.75
2023-07-15T12:01:15.238Z,23.73
2023-07-15T12:02:15.320Z,23.71
2023-07-15T12:03:15.229Z,23.71
2023-07-15T12:04:15.311Z,23.70
2023-07-15T12:05:15.216Z,23.70
2023-07-15T12:06:15.460Z,23.70
2023-07-15T12:07:15.244Z,23.72
2023-07-15T12:08:15.196Z,23.74
2023-07-15T12:09:15.259Z,23.76
2023-07-15T12:10:15.168Z,23.79
2023-07-15T12:11:15.120Z,23.83
2023-07-15T12:12:15.129Z,23.88
2023-07-15T12:13:15.225Z,23.94
2023-07-15T12:14:15.213Z,24.02
2023-07-15T12:15:15.072Z,24.11
2023-07-15T12:16:15.266Z,24.18
2023-07-15T12:17:15.111Z,24.23
2023-07-15T12:18:15.242Z,24.28
2023-07-15T12:19:15.224Z,24.31
2023-07-15T12:20:15.065Z,24.33
2023-07-15T12:21:15.028Z,24.35
2023-07-15T12:22:15.227Z,24.35
2023-07-15T12:23:14.977Z,24.36
2023-07-15T12:24:14.988Z,24.37
2023-07-15T12:25:14.973Z,24.37
2023-07-15T12:26:15.289Z,24.37
2023-07-15T12:27:15.051Z,24.36
2023-07-15T12:28:14.945Z,24.35
2023-07-15T12:29:14.980Z,24.34
2023-07-15T12:30:14.925Z,24.32
2023-07-15T12:31:15.115Z,24.31
2023-07-15T12:32:14.921Z,24.30
2023-07-15T12:33:14.891Z,24.29
2023-07-15T12:34:15.075Z,24.28
2023-07-15T12:35:16.339Z,24.27
2023-07-15T12:36:15.354Z,24.27
2023-07-15T12:37:14.839Z,24.28
2023-07-15T12:38:14.848Z,24.29
2023-07-15T12:39:14.801Z,24.31
2023-07-15T12:40:14.795Z,24.32
2023-07-15T12:41:14.798Z,24.35
2023-07-15T12:42:14.773Z,24.38
2023-07-15T12:43:14.758Z,24.41
2023-07-15T12:44:14.762Z,24.44
2023-07-15T12:45:14.724Z,24.47
2023-07-15T12:46:15.070Z,24.50
2023-07-15T12:47:14.708Z,24.53
2023-07-15T12:48:14.739Z,24.54
2023-07-15T12:49:14.726Z,24.56
2023-07-15T12:50:14.772Z,24.58
2023-07-15T12:51:14.666Z,24.61
2023-07-15T12:52:14.709Z,24.65